Time;durP1;ratioP1;P1;durP2;ratioP2;P2;SDS_P1;SDS_P2;PMS_P1;PMS_P2;Temp;Humidity;BMP_temperature;BMP_pressure;BME280_temperature;BME280_humidity;BME280_pressure;Samples;Min_cycle;Max_cycle;Signal;HPM_P1;HPM_P2
2024/02/06 02:30:07;;;;;;;13.23;12.40;;;9.60;25.60;;;;;;6159921;23;20451;-81
2024/02/06 02:32:33;;;;;;;12.60;11.80;;;9.60;25.30;;;;;;6186987;22;20440;-78
2024/02/06 02:34:59;;;;;;;13.00;12.23;;;9.60;25.50;;;;;;6284724;22;20381;-79
2024/02/06 02:37:24;;;;;;;13.10;12.20;;;9.60;25.50;;;;;;6310768;22;20422;-78
2024/02/06 02:39:51;;;;;;;13.17;12.17;;;9.60;25.60;;;;;;6311250;22;20234;-79
2024/02/06 02:42:16;;;;;;;13.83;12.70;;;9.60;25.50;;;;;;6284256;22;20170;-80
2024/02/06 02:44:42;;;;;;;13.50;12.30;;;9.40;25.00;;;;;;6311898;22;20369;-79
2024/02/06 02:47:07;;;;;;;12.93;12.03;;;9.00;26.40;;;;;;6283976;22;20476;-79
2024/02/06 02:49:33;;;;;;;13.40;12.30;;;8.60;27.50;;;;;;6312373;22;20150;-78
2024/02/06 02:51:58;;;;;;;13.70;12.60;;;8.20;28.40;;;;;;6311731;22;20146;-80
2024/02/06 02:54:27;;;;;;;13.40;12.50;;;7.90;29.20;;;;;;6285028;22;20623;-78
2024/02/06 02:56:56;;;;;;;14.13;13.30;;;7.70;30.00;;;;;;6284121;22;20158;-79
2024/02/06 02:59:22;;;;;;;15.23;14.03;;;7.60;31.20;;;;;;6310523;22;20383;-79
2024/02/06 03:01:48;;;;;;;13.87;13.00;;;7.50;30.40;;;;;;6289050;22;20373;-79
2024/02/06 03:04:13;;;;;;;13.90;13.00;;;7.50;30.80;;;;;;6289372;22;20215;-79
2024/02/06 03:06:39;;;;;;;15.60;14.17;;;7.30;31.80;;;;;;6316735;22;20150;-79
2024/02/06 03:09:05;;;;;;;14.47;13.43;;;7.20;32.00;;;;;;6290852;22;20481;-79
2024/02/06 03:11:31;;;;;;;13.97;13.07;;;7.20;32.30;;;;;;6318089;22;20703;-79
2024/02/06 03:13:56;;;;;;;15.73;14.63;;;7.10;32.70;;;;;;6317580;22;20184;-79
2024/02/06 03:16:21;;;;;;;15.27;14.27;;;7.00;33.10;;;;;;6288692;22;20472;-79
2024/02/06 03:18:47;;;;;;;14.47;13.37;;;7.00;33.30;;;;;;6290853;22;20157;-78
2024/02/06 03:21:12;;;;;;;15.20;14.07;;;6.90;33.70;;;;;;6321146;22;20177;-80
2024/02/06 03:23:38;;;;;;;15.83;14.77;;;6.80;33.70;;;;;;6315274;22;20169;-79
2024/02/06 03:26:04;;;;;;;14.97;13.93;;;6.80;34.40;;;;;;6285489;22;20160;-79
2024/02/06 03:28:30;;;;;;;15.40;14.40;;;6.80;34.20;;;;;;6312625;22;20150;-78
2024/02/06 03:30:57;;;;;;;15.50;14.60;;;6.80;34.00;;;;;;6312592;22;20381;-79
2024/02/06 03:33:22;;;;;;;14.93;13.83;;;6.70;34.20;;;;;;6285787;22;20443;-78
2024/02/06 03:35:48;;;;;;;15.07;14.17;;;6.80;34.60;;;;;;6313621;22;20373;-79
2024/02/06 03:38:14;;;;;;;16.50;15.30;;;7.00;35.00;;;;;;6313203;22;20228;-78
2024/02/06 03:40:39;;;;;;;15.33;14.23;;;7.00;33.30;;;;;;6313524;22;20148;-78
2024/02/06 03:43:05;;;;;;;14.60;13.60;;;7.10;33.40;;;;;;6287049;22;20178;-79
2024/02/06 03:45:31;;;;;;;16.20;14.60;;;7.30;32.80;;;;;;6286747;22;20150;-79
2024/02/06 03:47:57;;;;;;;15.90;14.80;;;7.30;31.90;;;;;;6313873;22;20161;-79
2024/02/06 03:50:23;;;;;;;15.03;14.03;;;7.20;31.90;;;;;;6313960;22;20853;-80
2024/02/06 03:52:48;;;;;;;15.43;14.33;;;7.20;32.90;;;;;;6314277;22;20427;-79
2024/02/06 03:55:14;;;;;;;15.50;14.40;;;7.30;32.80;;;;;;6286163;22;20236;-79
2024/02/06 03:57:39;;;;;;;16.50;15.20;;;7.20;31.40;;;;;;6313446;22;20165;-79
2024/02/06 04:00:06;;;;;;;15.13;14.17;;;7.20;32.40;;;;;;6293979;22;20213;-79
2024/02/06 04:02:31;;;;;;;15.10;14.10;;;7.00;32.50;;;;;;6316252;22;20177;-79
2024/02/06 04:04:57;;;;;;;14.87;13.57;;;7.00;32.40;;;;;;6317045;22;20830;-79
2024/02/06 04:07:22;;;;;;;16.10;15.10;;;7.00;32.50;;;;;;6320866;22;20173;-79
2024/02/06 04:09:49;;;;;;;15.57;14.60;;;7.10;31.80;;;;;;6319868;22;20225;-79
2024/02/06 04:12:15;;;;;;;15.00;13.90;;;7.10;32.00;;;;;;6311641;22;20182;-79
2024/02/06 04:14:40;;;;;;;15.30;14.30;;;7.20;31.90;;;;;;6311585;22;20650;-79
2024/02/06 04:17:06;;;;;;;17.07;15.43;;;7.30;31.10;;;;;;6310802;22;20372;-79
2024/02/06 04:19:31;;;;;;;15.03;13.93;;;7.40;30.30;;;;;;6283835;22;20154;-78
2024/02/06 04:21:57;;;;;;;15.27;13.97;;;7.40;31.00;;;;;;6284615;22;20150;-78
2024/02/06 04:24:23;;;;;;;15.83;14.73;;;7.30;30.20;;;;;;6311876;22;20185;-80
2024/02/06 04:26:48;;;;;;;15.17;14.17;;;7.30;30.20;;;;;;6283800;22;20228;-79
2024/02/06 04:29:14;;;;;;;16.23;14.63;;;7.30;30.20;;;;;;6313094;22;20146;-79
2024/02/06 04:31:40;;;;;;;15.53;14.33;;;7.50;29.90;;;;;;6313961;22;20583;-79
2024/02/06 04:34:06;;;;;;;16.23;15.10;;;7.50;29.90;;;;;;6312221;22;20182;-79
2024/02/06 04:36:32;;;;;;;15.33;14.23;;;7.50;29.80;;;;;;6311727;22;20447;-78
2024/02/06 04:38:57;;;;;;;14.10;13.10;;;7.30;29.90;;;;;;6289786;22;20388;-79
2024/02/06 04:41:23;;;;;;;16.07;15.10;;;7.20;30.20;;;;;;6314677;22;20150;-78
2024/02/06 04:43:48;;;;;;;14.10;13.20;;;7.20;30.10;;;;;;6285612;22;20242;-79
2024/02/06 04:46:15;;;;;;;15.20;14.20;;;7.10;30.10;;;;;;6283622;22;20173;-78
2024/02/06 04:48:41;;;;;;;15.60;14.20;;;7.20;30.00;;;;;;6312182;22;20154;-79
2024/02/06 04:51:06;;;;;;;13.70;12.60;;;7.10;30.10;;;;;;6284242;22;20385;-78
2024/02/06 04:53:32;;;;;;;15.07;13.97;;;7.00;30.80;;;;;;6283866;22;20185;-79
2024/02/06 04:55:58;;;;;;;13.90;12.90;;;7.00;30.40;;;;;;6284628;22;20153;-78
2024/02/06 04:58:24;;;;;;;14.67;13.67;;;7.00;30.30;;;;;;6310563;22;20538;-79
2024/02/06 05:00:50;;;;;;;14.77;13.70;;;7.20;30.70;;;;;;6312657;22;20588;-78
2024/02/06 05:03:15;;;;;;;13.00;12.10;;;7.30;30.20;;;;;;6312147;22;20460;-78
2024/02/06 05:05:44;;;;;;;13.87;12.87;;;7.20;30.10;;;;;;6288649;22;20158;-79
2024/02/06 05:08:09;;;;;;;14.53;13.53;;;7.20;30.20;;;;;;6310777;22;20173;-78
2024/02/06 05:10:35;;;;;;;15.10;13.90;;;7.20;30.10;;;;;;6283353;22;20381;-78
2024/02/06 05:13:01;;;;;;;14.33;13.57;;;7.20;30.10;;;;;;6310173;22;20174;-79
2024/02/06 05:15:27;;;;;;;14.20;13.40;;;7.20;30.20;;;;;;6309402;22;20157;-79
2024/02/06 05:17:52;;;;;;;15.30;14.37;;;7.10;30.10;;;;;;6310101;22;20157;-79
2024/02/06 05:20:18;;;;;;;16.53;15.40;;;7.10;30.10;;;;;;6283100;22;20463;-78
2024/02/06 05:22:44;;;;;;;17.43;15.93;;;7.20;29.80;;;;;;6283701;22;20178;-79
2024/02/06 05:25:10;;;;;;;15.47;14.40;;;7.10;30.00;;;;;;6310711;22;20449;-79
2024/02/06 05:27:35;;;;;;;15.07;14.17;;;7.10;29.80;;;;;;6283128;22;20154;-79
2024/02/06 05:30:05;;;;;;;16.03;15.10;;;7.00;29.60;;;;;;6311311;22;20376;-79
2024/02/06 05:32:36;;;;;;;15.77;14.37;;;6.90;30.80;;;;;;6282351;22;20187;-79
2024/02/06 05:35:03;;;;;;;15.03;14.10;;;7.00;30.00;;;;;;6285495;22;20396;-79
2024/02/06 05:37:29;;;;;;;14.37;13.37;;;7.20;30.10;;;;;;6310762;22;20364;-78
2024/02/06 05:39:54;;;;;;;13.07;12.37;;;7.30;29.40;;;;;;6284973;22;20384;-80
2024/02/06 05:42:20;;;;;;;13.70;12.57;;;7.20;29.40;;;;;;6285772;22;20181;-79
2024/02/06 05:44:46;;;;;;;12.67;11.80;;;7.00;29.60;;;;;;6286563;22;20150;-79
2024/02/06 05:47:11;;;;;;;12.53;11.73;;;6.70;30.10;;;;;;6313202;22;20860;-80
2024/02/06 05:49:38;;;;;;;12.70;11.80;;;6.60;31.30;;;;;;6286920;22;20150;-78
2024/02/06 05:52:04;;;;;;;12.30;11.60;;;6.50;31.80;;;;;;6286810;22;20623;-80
2024/02/06 05:54:29;;;;;;;12.70;11.90;;;6.40;31.80;;;;;;6313024;22;20495;-82
2024/02/06 05:57:01;;;;;;;13.13;12.10;;;6.40;32.20;;;;;;6310404;22;20822;-80
2024/02/06 05:59:28;;;;;;;13.00;12.20;;;6.40;32.20;;;;;;6285692;22;20139;-82
2024/02/06 06:01:54;;;;;;;13.00;12.13;;;6.50;31.90;;;;;;6285365;22;20392;-80
2024/02/06 06:04:20;;;;;;;15.43;14.33;;;6.50;31.50;;;;;;6312796;22;20436;-81
2024/02/06 06:06:46;;;;;;;13.97;13.03;;;6.50;31.40;;;;;;6311362;22;20763;-80
2024/02/06 06:09:12;;;;;;;13.53;12.50;;;6.50;31.60;;;;;;6312192;22;20379;-77
2024/02/06 06:11:38;;;;;;;14.47;13.27;;;6.50;31.30;;;;;;6312181;22;20146;-80
2024/02/06 06:14:03;;;;;;;14.90;13.90;;;6.50;31.60;;;;;;6313644;22;20717;-80
2024/02/06 06:16:29;;;;;;;13.40;12.37;;;6.60;31.50;;;;;;6312254;22;20147;-77
2024/02/06 06:18:55;;;;;;;13.87;13.00;;;6.60;31.00;;;;;;6313885;22;20221;-80
2024/02/06 06:21:20;;;;;;;13.63;12.93;;;6.60;30.80;;;;;;6312997;22;20148;-80
2024/02/06 06:23:46;;;;;;;13.90;12.93;;;6.60;30.80;;;;;;6312652;22;20166;-80
2024/02/06 06:26:11;;;;;;;13.70;13.00;;;6.60;30.80;;;;;;6284702;22;20154;-78
2024/02/06 06:28:37;;;;;;;14.30;13.50;;;6.60;31.00;;;;;;6313365;22;20153;-81
2024/02/06 06:31:05;;;;;;;13.83;12.80;;;6.50;31.30;;;;;;6285613;22;20185;-80
2024/02/06 06:33:31;;;;;;;19.93;18.33;;;6.50;31.40;;;;;;6313230;22;20708;-80
2024/02/06 06:35:56;;;;;;;13.70;12.70;;;6.50;31.70;;;;;;6313914;22;20373;-80
2024/02/06 06:38:22;;;;;;;13.80;12.90;;;6.60;30.90;;;;;;6284883;22;20176;-80
2024/02/06 06:40:47;;;;;;;14.77;13.90;;;6.70;30.70;;;;;;6285729;22;20203;-80
2024/02/06 06:43:13;;;;;;;13.53;12.63;;;6.50;31.30;;;;;;6310963;22;20177;-80
2024/02/06 06:45:38;;;;;;;13.50;12.60;;;6.50;31.20;;;;;;6312883;22;20200;-80
2024/02/06 06:48:04;;;;;;;13.27;12.40;;;6.50;31.00;;;;;;6284466;22;20661;-80
2024/02/06 06:50:30;;;;;;;13.47;12.47;;;6.60;30.50;;;;;;6314311;22;20169;-79
2024/02/06 06:52:55;;;;;;;13.70;12.60;;;6.60;30.20;;;;;;6287750;22;20444;-81
2024/02/06 06:55:21;;;;;;;14.80;13.80;;;6.60;29.80;;;;;;6313126;22;20126;-80
2024/02/06 06:57:46;;;;;;;13.30;12.50;;;6.60;30.10;;;;;;6284972;22;20150;-80
2024/02/06 07:00:13;;;;;;;14.00;12.63;;;6.50;29.70;;;;;;6285986;22;20180;-79
2024/02/06 07:02:39;;;;;;;13.40;12.43;;;6.50;30.00;;;;;;6313674;22;20158;-79
2024/02/06 07:05:07;;;;;;;13.30;12.30;;;6.70;29.90;;;;;;6313186;22;20393;-78
2024/02/06 07:07:33;;;;;;;12.17;11.10;;;6.70;29.60;;;;;;6310978;22;20388;-79
2024/02/06 07:09:59;;;;;;;12.63;11.73;;;6.70;29.70;;;;;;6312783;22;20373;-78
2024/02/06 07:12:25;;;;;;;12.63;11.73;;;6.70;29.30;;;;;;6286092;22;20229;-78
2024/02/06 07:14:50;;;;;;;12.37;11.53;;;6.90;29.60;;;;;;6312587;22;20146;-78
2024/02/06 07:17:17;;;;;;;13.80;12.90;;;7.00;28.80;;;;;;6312329;22;20383;-79
2024/02/06 07:19:43;;;;;;;15.30;13.83;;;6.90;28.60;;;;;;6316262;22;20157;-78
2024/02/06 07:22:08;;;;;;;13.60;12.40;;;6.80;29.10;;;;;;6322759;22;20420;-77
2024/02/06 07:24:34;;;;;;;12.33;11.53;;;6.70;29.40;;;;;;6317004;22;20211;-79
2024/02/06 07:27:00;;;;;;;12.50;11.70;;;6.70;29.90;;;;;;6313334;22;20146;-78
2024/02/06 07:29:26;;;;;;;12.93;12.13;;;6.60;29.80;;;;;;6291129;22;20180;-76
2024/02/06 07:31:51;;;;;;;12.93;12.13;;;6.60;29.80;;;;;;6317280;22;20739;-78
2024/02/06 07:34:18;;;;;;;18.40;17.00;;;6.60;29.80;;;;;;6308954;22;20188;-78
2024/02/06 07:36:44;;;;;;;13.33;12.40;;;6.80;30.10;;;;;;6279625;22;20157;-79
2024/02/06 07:39:10;;;;;;;17.40;15.90;;;6.90;29.30;;;;;;6304954;22;20439;-78
2024/02/06 07:41:36;;;;;;;13.00;12.10;;;7.00;30.00;;;;;;6305781;22;20889;-78
2024/02/06 07:44:03;;;;;;;12.87;12.07;;;7.10;29.00;;;;;;6307610;22;20446;-77
2024/02/06 07:46:29;;;;;;;12.13;11.23;;;7.20;28.70;;;;;;6307548;22;20376;-78
2024/02/06 07:48:56;;;;;;;14.50;13.50;;;7.20;28.70;;;;;;6306474;22;20396;-79
2024/02/06 07:51:23;;;;;;;13.30;12.33;;;7.10;29.10;;;;;;6319621;22;20388;-80
2024/02/06 07:53:54;;;;;;;13.27;12.27;;;7.10;29.00;;;;;;6323965;22;20936;-80
2024/02/06 07:56:19;;;;;;;14.47;13.33;;;7.20;28.70;;;;;;6327100;22;20375;-80
2024/02/06 07:58:46;;;;;;;12.50;11.43;;;7.20;29.50;;;;;;6294596;22;20385;-81
2024/02/06 08:01:11;;;;;;;13.23;12.13;;;7.50;28.50;;;;;;6315617;22;20142;-79
2024/02/06 08:03:41;;;;;;;12.27;11.57;;;7.50;28.10;;;;;;6312651;22;20462;-80
2024/02/06 08:06:07;;;;;;;13.90;13.00;;;7.50;27.80;;;;;;6287175;22;20721;-80
2024/02/06 08:08:32;;;;;;;12.13;11.53;;;7.50;28.40;;;;;;6286553;22;20388;-80
2024/02/06 08:10:59;;;;;;;11.57;10.87;;;7.50;28.10;;;;;;6315998;22;20455;-80
2024/02/06 08:13:25;;;;;;;13.07;12.20;;;7.40;28.30;;;;;;6287896;22;20213;-81
2024/02/06 08:15:50;;;;;;;12.30;11.60;;;7.40;28.60;;;;;;6288310;22;20861;-82
2024/02/06 08:18:16;;;;;;;12.33;11.40;;;7.40;28.30;;;;;;6314694;22;20201;-79
2024/02/06 08:20:42;;;;;;;10.60;9.90;;;7.40;28.30;;;;;;6315277;22;20176;-80
2024/02/06 08:23:08;;;;;;;11.70;10.90;;;7.50;28.50;;;;;;6289065;22;20173;-80
2024/02/06 08:25:34;;;;;;;12.53;11.73;;;7.40;28.50;;;;;;6289806;22;20157;-80
2024/02/06 08:28:00;;;;;;;13.23;12.40;;;7.50;28.40;;;;;;6314292;22;20444;-79
2024/02/06 08:30:26;;;;;;;11.60;10.80;;;7.50;28.50;;;;;;6296120;22;20452;-81
2024/02/06 08:32:51;;;;;;;11.73;11.03;;;7.50;28.70;;;;;;6293199;22;20189;-78
2024/02/06 08:35:17;;;;;;;10.90;10.30;;;7.60;28.40;;;;;;6317214;22;20496;-79
2024/02/06 08:37:43;;;;;;;11.40;10.60;;;7.70;28.00;;;;;;6315346;22;20603;-79
2024/02/06 08:40:10;;;;;;;10.60;9.93;;;7.60;28.20;;;;;;6315909;22;20364;-78
2024/02/06 08:42:36;;;;;;;11.83;10.70;;;7.50;28.10;;;;;;6288489;22;20196;-78
2024/02/06 08:45:03;;;;;;;11.87;11.23;;;7.50;28.60;;;;;;6288628;22;20377;-77
2024/02/06 08:47:35;;;;;;;12.50;11.70;;;7.40;28.70;;;;;;6315088;22;20372;-79
2024/02/06 08:50:01;;;;;;;11.47;10.67;;;7.40;28.60;;;;;;6317336;22;20679;-79
2024/02/06 08:52:27;;;;;;;12.63;11.80;;;7.50;29.00;;;;;;6289699;22;20434;-78
2024/02/06 08:54:56;;;;;;;12.93;12.03;;;7.50;28.70;;;;;;6316005;22;20169;-80
2024/02/06 08:57:22;;;;;;;12.43;11.63;;;7.50;28.60;;;;;;6313079;22;20461;-78
2024/02/06 08:59:48;;;;;;;12.63;11.83;;;7.50;28.70;;;;;;6287616;22;20432;-79
2024/02/06 09:02:13;;;;;;;11.67;10.97;;;7.50;28.90;;;;;;6314847;22;20922;-78
2024/02/06 09:04:39;;;;;;;14.90;13.53;;;7.60;28.60;;;;;;6288176;22;20380;-78
2024/02/06 09:07:07;;;;;;;12.10;11.20;;;7.60;28.90;;;;;;6312864;22;20146;-81
2024/02/06 09:09:33;;;;;;;12.43;11.63;;;7.60;28.80;;;;;;6311080;22;20249;-80
2024/02/06 09:11:58;;;;;;;11.27;10.67;;;7.70;28.60;;;;;;6316463;22;20373;-80
2024/02/06 09:14:24;;;;;;;11.40;10.50;;;7.70;28.40;;;;;;6288980;22;20187;-80
2024/02/06 09:16:50;;;;;;;10.80;10.10;;;7.80;28.30;;;;;;6315006;22;20142;-78
2024/02/06 09:19:15;;;;;;;11.57;10.77;;;7.90;28.40;;;;;;6289789;22;20764;-79
2024/02/06 09:21:41;;;;;;;10.33;9.50;;;7.90;27.70;;;;;;6284967;22;20150;-80
2024/02/06 09:24:08;;;;;;;10.80;10.10;;;7.90;27.70;;;;;;6312173;22;20170;-81
2024/02/06 09:26:41;;;;;;;9.80;9.30;;;7.90;27.50;;;;;;6285834;22;20391;-80
2024/02/06 09:29:06;;;;;;;10.10;9.40;;;7.90;27.80;;;;;;6311193;22;20373;-81
2024/02/06 09:31:32;;;;;;;11.70;10.63;;;7.90;27.70;;;;;;6314470;22;20377;-80
2024/02/06 09:33:58;;;;;;;10.00;9.30;;;7.90;28.10;;;;;;6288628;22;20193;-79
2024/02/06 09:36:23;;;;;;;9.80;9.20;;;7.90;27.80;;;;;;6316049;22;20153;-80
2024/02/06 09:38:49;;;;;;;11.30;10.40;;;8.00;27.80;;;;;;6315651;22;20146;-82
2024/02/06 09:41:15;;;;;;;10.10;9.40;;;8.00;28.10;;;;;;6313337;22;20145;-81
2024/02/06 09:43:42;;;;;;;9.63;9.07;;;8.10;27.60;;;;;;6312054;22;20193;-81
2024/02/06 09:46:08;;;;;;;11.40;10.57;;;8.10;27.60;;;;;;6311459;22;20377;-82
2024/02/06 09:48:34;;;;;;;11.10;10.40;;;8.20;27.70;;;;;;6316454;22;20380;-81
2024/02/06 09:51:00;;;;;;;10.30;9.70;;;8.20;27.80;;;;;;6286874;22;20194;-82
2024/02/06 09:53:31;;;;;;;8.93;8.43;;;8.30;27.40;;;;;;6287126;22;20202;-81
2024/02/06 09:55:58;;;;;;;10.23;9.63;;;8.30;27.30;;;;;;6318537;22;20451;-82
2024/02/06 09:58:24;;;;;;;10.20;9.50;;;8.30;27.20;;;;;;6285551;22;20377;-80
2024/02/06 10:00:54;;;;;;;9.07;8.47;;;8.40;27.20;;;;;;6288421;22;20391;-82
2024/02/06 10:03:25;;;;;;;9.57;8.97;;;8.40;27.00;;;;;;6289487;22;20491;-81
2024/02/06 10:05:57;;;;;;;10.33;9.83;;;8.50;27.00;;;;;;6290047;22;20382;-81
2024/02/06 10:08:23;;;;;;;9.50;8.70;;;8.60;27.00;;;;;;6314966;22;20696;-81
2024/02/06 10:10:53;;;;;;;11.23;10.43;;;8.60;26.90;;;;;;6286993;22;20384;-82
2024/02/06 10:13:20;;;;;;;9.37;8.77;;;8.70;26.90;;;;;;6312305;22;20182;-81
2024/02/06 10:15:47;;;;;;;8.70;8.20;;;8.70;26.70;;;;;;6298915;22;20400;-84
2024/02/06 10:18:17;;;;;;;9.00;8.43;;;8.70;26.80;;;;;;6326251;22;20404;-82
2024/02/06 10:20:47;;;;;;;8.77;8.27;;;8.80;26.60;;;;;;6289653;22;20392;-81
2024/02/06 10:23:14;;;;;;;7.83;7.43;;;8.90;26.40;;;;;;6281579;22;20416;-80
2024/02/06 10:25:39;;;;;;;8.83;8.10;;;8.90;26.10;;;;;;6283109;22;20389;-80
2024/02/06 10:28:05;;;;;;;8.23;7.73;;;9.00;26.10;;;;;;6311410;22;20501;-80
2024/02/06 10:30:34;;;;;;;8.00;7.70;;;9.10;25.90;;;;;;6282876;22;20161;-78
2024/02/06 10:33:11;;;;;;;9.20;8.57;;;9.20;26.40;;;;;;6285469;22;20227;-80
2024/02/06 10:35:36;;;;;;;7.40;7.07;;;9.30;25.80;;;;;;6314246;22;20769;-80
2024/02/06 10:38:03;;;;;;;7.17;6.83;;;9.30;25.00;;;;;;6288083;22;20389;-81
2024/02/06 10:40:28;;;;;;;7.50;7.00;;;9.40;24.80;;;;;;6315380;22;20150;-78
2024/02/06 10:42:55;;;;;;;7.67;7.17;;;9.50;24.90;;;;;;6310671;22;20408;-78
2024/02/06 10:45:20;;;;;;;6.47;6.23;;;9.60;24.60;;;;;;6310081;22;20164;-78
2024/02/06 10:47:56;;;;;;;7.30;6.90;;;9.70;24.20;;;;;;6281591;22;20412;-81
2024/02/06 10:50:23;;;;;;;8.33;7.80;;;9.80;23.80;;;;;;6284695;22;20146;-79
2024/02/06 10:52:48;;;;;;;6.60;6.30;;;9.90;23.90;;;;;;6311438;22;20420;-80
2024/02/06 10:55:14;;;;;;;6.83;6.53;;;9.80;23.80;;;;;;6286218;22;20387;-81
2024/02/06 10:57:42;;;;;;;6.47;6.23;;;9.90;23.90;;;;;;6284820;22;20229;-79
2024/02/06 11:00:19;;;;;;;6.10;5.77;;;9.90;23.60;;;;;;6285977;22;20222;-78
2024/02/06 11:02:49;;;;;;;7.67;7.27;;;9.90;23.90;;;;;;6284825;22;20407;-79
2024/02/06 11:05:33;;;;;;;8.30;7.70;;;9.90;23.90;;;;;;6313732;22;20361;-79
2024/02/06 11:08:05;;;;;;;7.20;6.80;;;9.90;23.90;;;;;;6310882;22;20364;-79
2024/02/06 11:10:43;;;;;;;7.40;7.00;;;10.00;23.00;;;;;;6322285;22;20368;-78
2024/02/06 11:13:19;;;;;;;7.07;6.77;;;10.00;22.90;;;;;;6315946;22;20988;-78
2024/02/06 11:15:45;;;;;;;7.67;7.33;;;10.00;22.60;;;;;;6315411;22;20345;-80
2024/02/06 11:18:13;;;;;;;7.13;6.67;;;10.10;22.70;;;;;;6323598;22;20376;-79
2024/02/06 11:20:40;;;;;;;8.77;8.17;;;10.10;22.60;;;;;;6320218;22;20459;-79
2024/02/06 11:23:07;;;;;;;6.63;6.23;;;10.10;22.10;;;;;;6313982;22;20388;-77
2024/02/06 11:25:35;;;;;;;7.50;6.90;;;10.00;22.90;;;;;;6315016;22;20812;-80
2024/02/06 11:28:03;;;;;;;7.17;6.77;;;10.10;22.60;;;;;;6289642;22;20404;-79
2024/02/06 11:30:31;;;;;;;6.47;6.07;;;10.10;22.50;;;;;;6301225;22;20882;-78
2024/02/06 11:33:04;;;;;;;7.23;6.77;;;10.10;22.30;;;;;;6317739;22;20471;-79
2024/02/06 11:35:31;;;;;;;6.30;5.93;;;10.10;22.50;;;;;;6314703;22;20389;-79
2024/02/06 11:37:57;;;;;;;5.73;5.43;;;10.20;22.30;;;;;;6287744;22;20413;-78
2024/02/06 11:40:26;;;;;;;7.87;7.40;;;10.30;22.30;;;;;;6309869;22;20452;-81
2024/02/06 11:43:03;;;;;;;6.83;6.43;;;10.30;22.60;;;;;;6307989;22;20177;-79
2024/02/06 11:45:29;;;;;;;7.70;7.40;;;10.30;22.40;;;;;;6307728;22;20421;-77
2024/02/06 11:48:00;;;;;;;7.13;6.73;;;10.30;22.20;;;;;;6279427;22;20854;-77
2024/02/06 11:50:32;;;;;;;6.40;6.10;;;10.30;22.20;;;;;;6310499;22;20377;-79
2024/02/06 11:53:11;;;;;;;6.83;6.30;;;10.40;21.90;;;;;;6308578;22;20420;-76
2024/02/06 11:55:37;;;;;;;6.90;6.60;;;10.40;22.20;;;;;;6307335;22;20403;-78
2024/02/06 11:58:04;;;;;;;7.50;7.10;;;10.40;21.90;;;;;;6306346;22;20751;-78
2024/02/06 12:00:30;;;;;;;6.13;5.73;;;10.50;22.00;;;;;;6280622;22;20377;-77
2024/02/06 12:02:57;;;;;;;7.17;6.77;;;10.50;21.90;;;;;;6310348;22;20411;-78
2024/02/06 12:05:28;;;;;;;8.13;6.93;;;10.60;21.70;;;;;;6313974;22;20150;-78
2024/02/06 12:07:55;;;;;;;7.83;7.17;;;10.60;21.80;;;;;;6286904;22;20368;-79
2024/02/06 12:10:32;;;;;;;6.57;6.07;;;10.60;21.60;;;;;;6310138;22;20380;-78
2024/02/06 12:13:07;;;;;;;7.27;6.67;;;10.50;21.80;;;;;;6288670;22;20513;-81
2024/02/06 12:15:34;;;;;;;7.40;6.80;;;10.50;21.80;;;;;;6312132;22;20356;-80
2024/02/06 12:18:03;;;;;;;7.60;7.20;;;10.60;22.10;;;;;;6284995;22;20383;-79
2024/02/06 12:20:29;;;;;;;7.20;6.70;;;10.60;22.00;;;;;;6285678;22;20407;-79
2024/02/06 12:23:03;;;;;;;7.93;7.30;;;10.60;22.10;;;;;;6285128;22;20392;-79
2024/02/06 12:25:34;;;;;;;6.37;5.97;;;10.70;21.90;;;;;;6286701;22;20439;-80
2024/02/06 12:28:01;;;;;;;7.13;6.43;;;10.70;21.50;;;;;;6310581;22;20877;-78
2024/02/06 12:30:31;;;;;;;7.97;6.53;;;10.70;21.30;;;;;;6281649;22;20377;-78
2024/02/06 12:33:01;;;;;;;7.30;6.70;;;10.70;21.40;;;;;;6280649;22;20428;-78
2024/02/06 12:35:31;;;;;;;8.40;7.60;;;10.60;21.00;;;;;;6309303;22;20391;-76
2024/02/06 12:38:01;;;;;;;7.03;6.53;;;10.60;21.30;;;;;;6280377;22;20826;-79
2024/02/06 12:40:30;;;;;;;7.97;7.17;;;10.50;21.20;;;;;;6310186;22;20400;-80
2024/02/06 12:42:59;;;;;;;7.37;6.87;;;10.50;21.40;;;;;;6284306;22;20466;-78
2024/02/06 12:45:27;;;;;;;6.80;6.40;;;10.50;21.60;;;;;;6310424;22;20379;-78
2024/02/06 12:47:53;;;;;;;11.17;7.73;;;10.50;21.20;;;;;;6306343;22;20372;-79
2024/02/06 12:50:19;;;;;;;7.10;6.70;;;10.50;21.20;;;;;;6309180;22;20390;-79
2024/02/06 12:52:44;;;;;;;8.50;7.70;;;10.50;21.20;;;;;;6310536;22;20392;-79
2024/02/06 12:55:12;;;;;;;7.43;6.97;;;10.60;21.40;;;;;;6311421;22;20142;-79
2024/02/06 12:57:39;;;;;;;8.03;7.37;;;10.60;20.90;;;;;;6311313;22;20168;-81
2024/02/06 13:00:11;;;;;;;7.33;6.80;;;10.60;21.00;;;;;;6312025;22;20865;-80
2024/02/06 13:02:38;;;;;;;8.60;7.70;;;10.70;21.00;;;;;;6284758;22;20399;-81
2024/02/06 13:05:11;;;;;;;8.33;7.30;;;10.70;20.90;;;;;;6311652;22;20521;-80
2024/02/06 13:07:37;;;;;;;7.70;7.10;;;10.60;21.10;;;;;;6311357;22;20373;-79
2024/02/06 13:10:08;;;;;;;8.13;6.97;;;10.70;20.80;;;;;;6284609;22;20372;-78
2024/02/06 13:12:34;;;;;;;7.43;6.93;;;10.70;20.70;;;;;;6312641;22;20721;-79
2024/02/06 13:15:06;;;;;;;8.50;7.73;;;10.70;20.70;;;;;;6284180;22;20376;-77
2024/02/06 13:17:35;;;;;;;8.33;7.60;;;10.70;20.70;;;;;;6309024;22;20373;-78
2024/02/06 13:20:05;;;;;;;8.03;6.90;;;10.70;20.70;;;;;;6277518;22;20387;-79
2024/02/06 13:22:32;;;;;;;7.90;7.03;;;10.80;20.60;;;;;;6309374;22;20480;-79
2024/02/06 13:24:58;;;;;;;7.63;6.90;;;10.90;20.40;;;;;;6282355;22;20567;-79
2024/02/06 13:27:23;;;;;;;7.03;6.57;;;11.00;20.60;;;;;;6308593;22;20411;-80
2024/02/06 13:29:50;;;;;;;7.80;7.30;;;11.00;20.40;;;;;;6283987;22;20496;-78
2024/02/06 13:32:16;;;;;;;7.70;6.90;;;11.00;20.20;;;;;;6310713;22;20451;-79
2024/02/06 13:34:41;;;;;;;7.83;6.33;;;11.10;20.30;;;;;;6308110;22;20495;-79
2024/02/06 13:37:55;;;;;;;7.63;6.90;;;11.10;20.20;;;;;;6309289;22;20357;-80
2024/02/06 13:40:20;;;;;;;7.03;6.50;;;11.10;20.20;;;;;;6284165;22;20690;-79
2024/02/06 13:42:46;;;;;;;6.80;6.30;;;11.10;20.20;;;;;;6310277;22;20384;-80
2024/02/06 13:45:11;;;;;;;7.93;7.30;;;11.00;19.80;;;;;;6308764;22;20150;-78
2024/02/06 13:47:37;;;;;;;9.87;7.10;;;11.00;20.10;;;;;;6308688;22;20149;-79
2024/02/06 13:50:06;;;;;;;8.07;7.53;;;11.10;19.80;;;;;;6282387;22;20150;-79
2024/02/06 13:52:32;;;;;;;7.43;6.90;;;11.10;20.10;;;;;;6286922;22;20722;-80
2024/02/06 13:54:57;;;;;;;7.90;6.63;;;11.10;20.00;;;;;;6284461;22;20388;-80
2024/02/06 13:57:23;;;;;;;8.50;7.90;;;11.10;19.70;;;;;;6313096;22;20373;-79
2024/02/06 13:59:49;;;;;;;6.93;6.33;;;11.10;19.70;;;;;;6286899;22;20177;-81
2024/02/06 14:02:14;;;;;;;6.53;5.93;;;11.10;19.40;;;;;;6314603;22;20633;-78
2024/02/06 14:04:40;;;;;;;10.10;7.60;;;11.20;19.60;;;;;;6314797;22;20488;-80
2024/02/06 14:07:06;;;;;;;8.27;7.53;;;11.10;19.60;;;;;;6314184;22;20162;-78
2024/02/06 14:09:31;;;;;;;7.27;6.77;;;11.10;19.30;;;;;;6320948;22;20357;-77
2024/02/06 14:12:01;;;;;;;8.00;7.43;;;11.00;19.40;;;;;;6310916;22;20623;-79
2024/02/06 14:14:27;;;;;;;6.80;6.50;;;11.00;19.40;;;;;;6285509;22;20192;-79
2024/02/06 14:16:53;;;;;;;7.30;6.80;;;11.00;19.40;;;;;;6286600;22;20407;-79
2024/02/06 14:19:21;;;;;;;8.27;7.60;;;11.00;19.50;;;;;;6286143;22;20150;-78
2024/02/06 14:21:47;;;;;;;8.33;7.37;;;11.00;19.40;;;;;;6314122;22;20426;-79
2024/02/06 14:24:13;;;;;;;7.97;7.20;;;11.00;19.20;;;;;;6313698;22;20372;-78
2024/02/06 14:26:39;;;;;;;7.90;7.30;;;11.00;19.30;;;;;;6314709;22;20383;-78
2024/02/06 14:29:06;;;;;;;7.40;6.73;;;10.90;19.50;;;;;;6315667;22;20369;-78
2024/02/06 14:31:32;;;;;;;7.57;7.00;;;11.00;19.50;;;;;;6315666;22;20473;-79
2024/02/06 14:34:01;;;;;;;7.53;7.00;;;10.90;19.50;;;;;;6314478;22;20429;-79
2024/02/06 14:36:26;;;;;;;8.53;6.63;;;11.00;19.60;;;;;;6320430;22;20432;-77
2024/02/06 14:38:52;;;;;;;6.87;6.47;;;11.00;19.40;;;;;;6324660;22;20869;-78
2024/02/06 14:41:18;;;;;;;7.50;7.00;;;11.00;19.40;;;;;;6315651;22;20150;-78
2024/02/06 14:43:46;;;;;;;7.10;6.70;;;11.00;19.40;;;;;;6319444;22;20237;-79
2024/02/06 14:46:12;;;;;;;7.90;7.33;;;11.00;19.30;;;;;;6323436;22;20396;-78
2024/02/06 14:48:38;;;;;;;7.53;7.00;;;11.10;19.40;;;;;;6314530;22;20372;-78
2024/02/06 14:51:05;;;;;;;7.43;6.93;;;11.10;19.10;;;;;;6284005;22;20391;-79
2024/02/06 14:53:35;;;;;;;7.40;7.00;;;11.10;19.40;;;;;;6288462;22;20246;-79
2024/02/06 14:56:02;;;;;;;7.63;7.13;;;11.00;19.20;;;;;;6288297;22;20369;-79
2024/02/06 14:58:28;;;;;;;7.37;6.83;;;10.90;19.20;;;;;;6290349;22;20388;-79
2024/02/06 15:00:53;;;;;;;7.80;7.30;;;10.90;19.40;;;;;;6311972;22;20380;-78
2024/02/06 15:03:20;;;;;;;7.13;6.33;;;10.90;19.40;;;;;;6307429;22;20396;-80
2024/02/06 15:05:46;;;;;;;8.03;7.53;;;10.90;19.10;;;;;;6282136;22;20146;-79
2024/02/06 15:08:11;;;;;;;8.77;8.10;;;10.90;19.40;;;;;;6310696;22;20433;-80
2024/02/06 15:10:37;;;;;;;7.73;7.23;;;10.90;19.10;;;;;;6283891;22;20289;-79